CheckWX is a tool to help pilots better visualize weather data.  It is not intended as a substitute for an official pre-flight weather briefing.

03:17:28 UTC

KGBG METAR
Galesburg Municipal Airport
Galesburg, Illinois, USA
Current

22 mins ago

KGBG 100255Z AUTO 28016G23KT 10SM BKN020 M07/M10 A2993 RMK AO2 T10711100
Observed
Dec-10 @ 02:55 UTC
Wind
  • 280° at 16 KTS
  • Gusting to 23 KTS
Visibility
10 SM
Flight Rules
MVFR
Cloud Levels
  • Broken at 2,000' AGL
Temperature
-7°C / 19°F
Dewpoint
-10°C / 14°F
Humidity
79%
Altimeter
29.93" Hg
Pressure
1013.52 hPa
Previous

42 mins ago

KGBG 100235Z AUTO 29019G23KT 10SM BKN020 M07/M10 A2990 RMK AO2 T10701097
Observed
Dec-10 @ 02:35 UTC
Wind
  • 290° at 19 KTS
  • Gusting to 23 KTS
Visibility
10 SM
Flight Rules
MVFR
Cloud Levels
  • Broken at 2,000' AGL
Temperature
-7°C / 19°F
Dewpoint
-10°C / 14°F
Humidity
79%
Altimeter
29.9" Hg
Pressure
1012.52 hPa
Previous

1 hour ago

KGBG 100215Z AUTO 28017G21KT 10SM SCT020 M07/M09 A2990 RMK AO2 T10681095
Observed
Dec-10 @ 02:15 UTC
Wind
  • 280° at 17 KTS
  • Gusting to 21 KTS
Visibility
10 SM
Flight Rules
VFR
Cloud Levels
  • Scattered at 2,000' AGL
Temperature
-7°C / 19°F
Dewpoint
-10°C / 14°F
Humidity
79%
Altimeter
29.9" Hg
Pressure
1012.52 hPa